Time;durP1;ratioP1;P1;durP2;ratioP2;P2;SDS_P1;SDS_P2;PMS_P1;PMS_P2;Temp;Humidity;BMP_temperature;BMP_pressure;BME280_temperature;BME280_humidity;BME280_pressure;Samples;Min_cycle;Max_cycle;Signal;HPM_P1;HPM_P2
2022/08/29 00:00:42;;;;;;;;;;;20.10;87.80;;;;;;5063608;28;20698;-85
2022/08/29 00:03:07;;;;;;;;;;;20.00;88.40;;;;;;5063099;28;19919;-85
2022/08/29 00:05:34;;;;;;;;;;;20.00;88.60;;;;;;5063313;28;19916;-85
2022/08/29 00:08:00;;;;;;;;;;;19.90;88.80;;;;;;5055830;28;19924;-85
2022/08/29 00:10:27;;;;;;;;;;;20.00;88.50;;;;;;5063069;28;19917;-84
2022/08/29 00:12:52;;;;;;;;;;;20.00;88.60;;;;;;5061938;28;19917;-87
2022/08/29 00:15:19;;;;;;;;;;;19.90;89.30;;;;;;5062232;28;19920;-86
2022/08/29 00:17:44;;;;;;;;;;;19.80;89.40;;;;;;5061636;28;19917;-86
2022/08/29 00:20:12;;;;;;;;;;;19.80;89.30;;;;;;5063294;28;19929;-86
2022/08/29 00:22:37;;;;;;;;;;;19.80;89.40;;;;;;5061943;28;19939;-85
2022/08/29 00:25:04;;;;;;;;;;;19.80;89.20;;;;;;5063252;28;20352;-86
2022/08/29 00:27:30;;;;;;;;;;;19.70;89.40;;;;;;5062879;28;19917;-85
2022/08/29 00:29:56;;;;;;;;;;;19.80;88.60;;;;;;5063458;28;19928;-86
2022/08/29 00:32:22;;;;;;;;;;;19.70;88.70;;;;;;5062373;28;19916;-84
2022/08/29 00:34:47;;;;;;;;;;;19.70;89.00;;;;;;5062684;28;19931;-85
2022/08/29 00:37:13;;;;;;;;;;;19.60;89.40;;;;;;5061519;28;19923;-85
2022/08/29 00:39:38;;;;;;;;;;;19.50;90.10;;;;;;5061932;28;19970;-85
2022/08/29 00:42:04;;;;;;;;;;;19.50;90.10;;;;;;5060701;28;20540;-85
2022/08/29 00:44:30;;;;;;;;;;;19.50;90.10;;;;;;5063326;28;20783;-86
2022/08/29 00:46:57;;;;;;;;;;;19.50;90.20;;;;;;5061280;28;20007;-86
2022/08/29 00:49:38;;;;;;;;;;;19.50;90.00;;;;;;5063473;28;19924;-85
2022/08/29 00:52:17;;;;;;;;;;;19.40;90.40;;;;;;5062059;28;19928;-85
2022/08/29 00:54:48;;;;;;;;;;;19.50;90.30;;;;;;5062090;28;20468;-84
2022/08/29 00:57:15;;;;;;;;;;;19.40;90.30;;;;;;5061117;28;20498;-86
2022/08/29 00:59:40;;;;;;;;;;;19.40;90.40;;;;;;5062518;28;19924;-83
2022/08/29 01:02:07;;;;;;;;;;;19.30;90.60;;;;;;5063266;28;19916;-85
2022/08/29 01:04:33;;;;;;;;;;;19.20;90.90;;;;;;5062963;28;19920;-83
2022/08/29 01:06:59;;;;;;;;;;;19.30;91.00;;;;;;5063066;28;19946;-86
2022/08/29 01:09:25;;;;;;;;;;;19.20;91.30;;;;;;5063487;28;20380;-87
2022/08/29 01:14:34;;;;;;;;;;;19.10;91.50;;;;;;5062817;28;19973;-85
2022/08/29 01:17:01;;;;;;;;;;;18.90;92.00;;;;;;5061682;28;19920;-84
2022/08/29 01:19:48;;;;;;;;;;;18.80;92.50;;;;;;5063030;28;19978;-85
2022/08/29 01:22:29;;;;;;;;;;;18.80;92.50;;;;;;5062864;28;19921;-84
2022/08/29 01:24:55;;;;;;;;;;;18.80;92.70;;;;;;5062460;28;20303;-85
2022/08/29 01:27:22;;;;;;;;;;;18.80;93.10;;;;;;5061063;28;19927;-85
2022/08/29 01:29:48;;;;;;;;;;;18.70;93.40;;;;;;5062711;28;19913;-84
2022/08/29 01:32:14;;;;;;;;;;;18.80;93.60;;;;;;5062623;28;19923;-84
2022/08/29 01:34:40;;;;;;;;;;;18.70;94.20;;;;;;5062320;28;20007;-85
2022/08/29 01:37:07;;;;;;;;;;;18.70;94.10;;;;;;5062506;28;19931;-84
2022/08/29 01:39:34;;;;;;;;;;;18.60;94.30;;;;;;5065120;28;19924;-84
2022/08/29 01:42:00;;;;;;;;;;;18.60;94.50;;;;;;5064128;28;20479;-84
2022/08/29 01:44:26;;;;;;;;;;;18.50;94.70;;;;;;5058813;28;20445;-83
2022/08/29 01:46:53;;;;;;;;;;;18.50;94.90;;;;;;5065633;28;19913;-83
2022/08/29 01:49:19;;;;;;;;;;;18.60;95.00;;;;;;5064899;28;19939;-83
2022/08/29 01:51:45;;;;;;;;;;;18.50;95.30;;;;;;5095600;28;20387;-87
2022/08/29 01:54:11;;;;;;;;;;;18.50;95.70;;;;;;5091987;28;19927;-86
2022/08/29 01:56:39;;;;;;;;;;;18.50;95.80;;;;;;5065973;28;19916;-86
2022/08/29 01:59:07;;;;;;;;;;;18.40;96.20;;;;;;5064943;28;19995;-86
2022/08/29 02:01:34;;;;;;;;;;;18.40;96.50;;;;;;5065579;28;19965;-87
2022/08/29 02:04:00;;;;;;;;;;;18.30;97.00;;;;;;5065411;28;19924;-86
2022/08/29 02:06:26;;;;;;;;;;;18.30;97.10;;;;;;5065278;28;19917;-83
2022/08/29 02:08:52;;;;;;;;;;;18.30;97.50;;;;;;5065365;28;20370;-87
2022/08/29 02:11:18;;;;;;;;;;;18.30;97.80;;;;;;5066635;28;20410;-87
2022/08/29 02:13:45;;;;;;;;;;;18.30;97.80;;;;;;5063731;28;19927;-86
2022/08/29 02:16:11;;;;;;;;;;;18.30;98.00;;;;;;5064059;28;19921;-85
2022/08/29 02:18:37;;;;;;;;;;;18.20;98.30;;;;;;5065244;28;19920;-85
2022/08/29 02:21:03;;;;;;;;;;;18.20;98.60;;;;;;5065477;28;19928;-85
2022/08/29 02:23:28;;;;;;;;;;;18.20;98.80;;;;;;5062935;28;19935;-85
2022/08/29 02:25:54;;;;;;;;;;;18.10;99.40;;;;;;5063670;28;20338;-85
2022/08/29 02:28:21;;;;;;;;;;;18.10;99.40;;;;;;5064955;28;19912;-86
2022/08/29 02:30:48;;;;;;;;;;;18.10;99.40;;;;;;5064333;28;20307;-86
2022/08/29 02:33:14;;;;;;;;;;;18.00;99.70;;;;;;5062812;28;20006;-85
2022/08/29 02:35:41;;;;;;;;;;;17.90;99.90;;;;;;5065174;28;19952;-86
2022/08/29 02:38:07;;;;;;;;;;;17.90;99.90;;;;;;5063133;28;19922;-87
2022/08/29 02:40:32;;;;;;;;;;;17.90;99.90;;;;;;5063437;28;20751;-86
2022/08/29 02:42:58;;;;;;;;;;;17.80;99.90;;;;;;5064372;28;20439;-85
2022/08/29 02:45:24;;;;;;;;;;;17.80;99.90;;;;;;5064477;28;19920;-85
2022/08/29 02:47:50;;;;;;;;;;;17.90;99.90;;;;;;5085515;28;19927;-85
2022/08/29 02:50:16;;;;;;;;;;;17.80;99.90;;;;;;5064754;28;20311;-86
2022/08/29 02:52:42;;;;;;;;;;;17.90;99.90;;;;;;5063408;28;19931;-86
2022/08/29 02:55:10;;;;;;;;;;;17.80;99.90;;;;;;5062647;28;19927;-86
2022/08/29 02:57:35;;;;;;;;;;;17.80;99.90;;;;;;5062877;28;20010;-85
2022/08/29 03:00:02;;;;;;;;;;;17.80;99.90;;;;;;5064443;28;19921;-82
2022/08/29 03:02:28;;;;;;;;;;;17.80;99.90;;;;;;5063867;28;19931;-84
2022/08/29 03:04:53;;;;;;;;;;;17.70;99.90;;;;;;5064861;28;19921;-83
2022/08/29 03:07:19;;;;;;;;;;;17.80;99.90;;;;;;5062747;28;20342;-84
2022/08/29 03:09:44;;;;;;;;;;;17.70;99.90;;;;;;5064979;28;19929;-84
2022/08/29 03:12:10;;;;;;;;;;;17.70;99.90;;;;;;5062885;28;19917;-82
2022/08/29 03:14:35;;;;;;;;;;;17.60;99.90;;;;;;5062737;28;19927;-82
2022/08/29 03:17:01;;;;;;;;;;;17.60;99.90;;;;;;5063723;28;19920;-82
2022/08/29 03:19:26;;;;;;;;;;;17.50;99.90;;;;;;5064648;28;19920;-84
2022/08/29 03:21:52;;;;;;;;;;;17.60;99.90;;;;;;5064740;28;19920;-83
2022/08/29 03:24:18;;;;;;;;;;;17.60;99.90;;;;;;5062124;28;20443;-83
2022/08/29 03:26:43;;;;;;;;;;;17.60;99.90;;;;;;5063398;28;20383;-82
2022/08/29 03:29:09;;;;;;;;;;;17.50;99.90;;;;;;5062679;28;20383;-82
2022/08/29 03:31:34;;;;;;;;;;;17.50;99.90;;;;;;5063565;28;20281;-85
2022/08/29 03:34:00;;;;;;;;;;;17.40;99.90;;;;;;5063839;28;20015;-85
2022/08/29 03:36:25;;;;;;;;;;;17.50;99.90;;;;;;5063972;28;19917;-84
2022/08/29 03:38:51;;;;;;;;;;;17.40;99.90;;;;;;5064174;28;19962;-84
2022/08/29 03:41:21;;;;;;;;;;;17.30;99.90;;;;;;5063409;28;19925;-83
2022/08/29 03:43:46;;;;;;;;;;;17.30;99.90;;;;;;5063708;28;19916;-84
2022/08/29 03:46:12;;;;;;;;;;;17.40;99.90;;;;;;5063989;28;20649;-84
2022/08/29 03:48:37;;;;;;;;;;;17.30;99.90;;;;;;5063452;28;20344;-83
2022/08/29 03:51:03;;;;;;;;;;;17.20;99.90;;;;;;5063851;28;19916;-87
2022/08/29 03:53:30;;;;;;;;;;;17.20;99.90;;;;;;5062544;28;19921;-84
2022/08/29 03:55:56;;;;;;;;;;;17.20;99.90;;;;;;5062045;28;19959;-85
2022/08/29 03:58:21;;;;;;;;;;;17.20;99.90;;;;;;5060432;28;20055;-84
2022/08/29 04:00:47;;;;;;;;;;;17.10;99.90;;;;;;5062675;28;20316;-86
2022/08/29 04:03:12;;;;;;;;;;;17.10;99.90;;;;;;5064147;28;19912;-87
2022/08/29 04:05:38;;;;;;;;;;;17.20;99.90;;;;;;5063400;28;19923;-88
2022/08/29 04:08:04;;;;;;;;;;;17.10;99.90;;;;;;5064227;28;20328;-88
2022/08/29 04:10:31;;;;;;;;;;;17.10;99.90;;;;;;5064612;28;20408;-86
2022/08/29 04:12:57;;;;;;;;;;;17.10;99.90;;;;;;5063650;28;19959;-85
2022/08/29 04:15:23;;;;;;;;;;;17.10;99.90;;;;;;5063689;28;19984;-86
2022/08/29 04:17:53;;;;;;;;;;;17.10;99.90;;;;;;5063237;28;20508;-85
2022/08/29 04:20:19;;;;;;;;;;;17.00;99.90;;;;;;5063213;28;20024;-85
2022/08/29 04:22:45;;;;;;;;;;;17.00;99.90;;;;;;5062783;28;20387;-86
2022/08/29 04:25:11;;;;;;;;;;;17.00;99.90;;;;;;5063570;28;19994;-85
2022/08/29 04:27:37;;;;;;;;;;;16.90;99.90;;;;;;5062918;28;19924;-83
2022/08/29 04:30:11;;;;;;;;;;;16.90;99.90;;;;;;5061765;28;20413;-86
2022/08/29 04:32:36;;;;;;;;;;;16.90;99.90;;;;;;5063006;28;19975;-86
2022/08/29 04:35:02;;;;;;;;;;;16.80;99.90;;;;;;5084149;28;20416;-85
2022/08/29 04:37:28;;;;;;;;;;;16.90;99.90;;;;;;5062475;28;20372;-86
2022/08/29 04:39:53;;;;;;;;;;;17.00;99.90;;;;;;5062512;28;19924;-81
2022/08/29 04:42:19;;;;;;;;;;;17.00;99.90;;;;;;5062178;28;20354;-82
2022/08/29 04:44:46;;;;;;;;;;;16.90;99.90;;;;;;5063451;28;19959;-81
2022/08/29 04:47:11;;;;;;;;;;;16.90;99.90;;;;;;5061852;28;19924;-83
2022/08/29 04:49:37;;;;;;;;;;;16.90;99.90;;;;;;5062994;28;19917;-82
2022/08/29 04:52:03;;;;;;;;;;;17.00;99.90;;;;;;5059391;28;19924;-81
2022/08/29 04:54:28;;;;;;;;;;;17.00;99.90;;;;;;5063448;28;19917;-82
2022/08/29 04:56:54;;;;;;;;;;;17.00;99.90;;;;;;5063175;28;20311;-81
2022/08/29 04:59:19;;;;;;;;;;;16.90;99.90;;;;;;5063221;28;19966;-84
2022/08/29 05:01:45;;;;;;;;;;;17.00;99.90;;;;;;5063467;28;19924;-85
2022/08/29 05:04:11;;;;;;;;;;;16.90;99.90;;;;;;5064045;28;19927;-84
2022/08/29 05:06:36;;;;;;;;;;;16.90;99.90;;;;;;5062447;28;20011;-85
2022/08/29 05:09:02;;;;;;;;;;;17.00;99.90;;;;;;5061680;28;20353;-84
2022/08/29 05:11:29;;;;;;;;;;;17.00;99.90;;;;;;5081368;28;19916;-82
2022/08/29 05:13:54;;;;;;;;;;;17.00;99.90;;;;;;5063270;28;20399;-84
2022/08/29 05:16:20;;;;;;;;;;;16.90;99.90;;;;;;5092245;28;19916;-82
2022/08/29 05:18:45;;;;;;;;;;;16.90;99.90;;;;;;5066762;28;19916;-84
2022/08/29 05:21:11;;;;;;;;;;;16.90;99.90;;;;;;5066219;28;19938;-87
2022/08/29 05:23:37;;;;;;;;;;;16.80;99.90;;;;;;5066721;28;19917;-84
2022/08/29 05:26:04;;;;;;;;;;;16.80;99.90;;;;;;5065647;28;19916;-84
2022/08/29 05:28:30;;;;;;;;;;;17.30;99.90;;;;;;5067079;28;19950;-86
2022/08/29 05:30:56;;;;;;;;;;;17.60;99.90;;;;;;5065174;28;20078;-82
2022/08/29 05:33:21;;;;;;;;;;;17.10;99.90;;;;;;5067351;28;20450;-85
2022/08/29 05:35:47;;;;;;;;;;;17.10;99.90;;;;;;5067433;28;19916;-85
2022/08/29 05:38:13;;;;;;;;;;;17.50;99.90;;;;;;5066056;28;19963;-85
2022/08/29 05:40:40;;;;;;;;;;;18.20;99.90;;;;;;5064691;28;20003;-85
2022/08/29 05:43:05;;;;;;;;;;;18.50;99.90;;;;;;5066506;28;20015;-86
2022/08/29 05:45:31;;;;;;;;;;;18.70;99.90;;;;;;5065999;28;20031;-85
2022/08/29 05:47:58;;;;;;;;;;;18.40;99.90;;;;;;5090218;28;19916;-85
2022/08/29 05:50:24;;;;;;;;;;;18.60;99.90;;;;;;5093657;28;19917;-86
2022/08/29 05:52:49;;;;;;;;;;;18.90;99.90;;;;;;5065674;28;19986;-83
2022/08/29 05:55:15;;;;;;;;;;;19.30;99.90;;;;;;5065885;28;20371;-83
2022/08/29 05:57:40;;;;;;;;;;;19.00;99.90;;;;;;5080410;28;20451;-84
2022/08/29 06:00:07;;;;;;;;;;;18.50;99.90;;;;;;5046703;28;19920;-82
2022/08/29 06:02:33;;;;;;;;;;;19.00;99.90;;;;;;5057350;28;19916;-81
2022/08/29 06:04:58;;;;;;;;;;;19.60;99.60;;;;;;5065680;28;20449;-81
2022/08/29 06:07:24;;;;;;;;;;;20.50;97.60;;;;;;5066291;28;19973;-82
2022/08/29 06:09:51;;;;;;;;;;;21.10;95.40;;;;;;5063876;28;20353;-83
2022/08/29 06:12:17;;;;;;;;;;;21.50;94.60;;;;;;5066120;28;19919;-82
2022/08/29 06:14:43;;;;;;;;;;;21.80;93.30;;;;;;5065852;28;19916;-81
2022/08/29 06:17:09;;;;;;;;;;;22.20;92.60;;;;;;5066104;28;20787;-80
2022/08/29 06:19:35;;;;;;;;;;;22.30;91.90;;;;;;5065777;28;19928;-80
2022/08/29 06:22:02;;;;;;;;;;;22.60;91.30;;;;;;5065151;28;19920;-81
2022/08/29 06:24:31;;;;;;;;;;;23.00;90.80;;;;;;5064776;28;19912;-81
2022/08/29 06:26:56;;;;;;;;;;;23.00;89.20;;;;;;5065614;28;19920;-80
2022/08/29 06:29:22;;;;;;;;;;;23.00;88.90;;;;;;5065179;28;19916;-80
2022/08/29 06:31:48;;;;;;;;;;;23.10;88.60;;;;;;5066006;28;20382;-80
2022/08/29 06:34:13;;;;;;;;;;;23.10;88.90;;;;;;5065574;28;19920;-80
2022/08/29 06:36:39;;;;;;;;;;;23.50;87.50;;;;;;5064274;28;19954;-80
2022/08/29 06:39:06;;;;;;;;;;;23.40;86.00;;;;;;5065311;28;19955;-80
2022/08/29 06:41:32;;;;;;;;;;;23.50;85.50;;;;;;5065697;28;20557;-80
2022/08/29 06:43:57;;;;;;;;;;;23.80;84.20;;;;;;5065371;28;19999;-80
2022/08/29 06:46:28;;;;;;;;;;;24.00;83.40;;;;;;5065551;28;20398;-81
2022/08/29 06:48:54;;;;;;;;;;;24.20;83.30;;;;;;5064153;28;20421;-81
2022/08/29 06:51:20;;;;;;;;;;;24.80;81.90;;;;;;5063658;28;19920;-86
2022/08/29 06:53:45;;;;;;;;;;;25.50;78.90;;;;;;5059929;28;19927;-84
2022/08/29 06:56:11;;;;;;;;;;;25.80;76.70;;;;;;5079131;28;19917;-86
2022/08/29 06:58:37;;;;;;;;;;;25.60;77.00;;;;;;5063025;28;19916;-86
2022/08/29 07:01:06;;;;;;;;;;;26.10;75.00;;;;;;5064465;28;19920;-87
2022/08/29 07:03:32;;;;;;;;;;;26.30;73.90;;;;;;5094333;28;19916;-92
2022/08/29 07:05:57;;;;;;;;;;;26.00;74.50;;;;;;5049216;28;20272;-88
2022/08/29 07:08:23;;;;;;;;;;;24.80;76.50;;;;;;5062185;28;20279;-87
2022/08/29 07:10:49;;;;;;;;;;;25.40;76.10;;;;;;5062432;28;19919;-85
2022/08/29 07:13:14;;;;;;;;;;;26.30;73.60;;;;;;5063773;28;19971;-88
2022/08/29 07:15:40;;;;;;;;;;;26.10;73.30;;;;;;5063695;28;19909;-87
2022/08/29 07:18:05;;;;;;;;;;;26.80;71.70;;;;;;5095942;28;19942;-87
2022/08/29 07:20:31;;;;;;;;;;;25.70;72.10;;;;;;5061674;28;19920;-87
2022/08/29 07:22:56;;;;;;;;;;;26.10;73.40;;;;;;5057081;28;19916;-86
2022/08/29 07:25:23;;;;;;;;;;;27.60;69.50;;;;;;5045064;28;20388;-87
2022/08/29 07:27:49;;;;;;;;;;;28.00;68.40;;;;;;5045113;28;19912;-86
2022/08/29 07:30:15;;;;;;;;;;;28.40;66.90;;;;;;5044900;28;19912;-87
2022/08/29 07:32:43;;;;;;;;;;;28.30;67.40;;;;;;5044865;28;19919;-86
2022/08/29 07:35:10;;;;;;;;;;;27.40;67.80;;;;;;5043334;28;19913;-85
2022/08/29 07:37:35;;;;;;;;;;;26.50;68.50;;;;;;5043252;28;19917;-86
2022/08/29 07:40:01;;;;;;;;;;;26.30;70.30;;;;;;5045246;28;19998;-86
2022/08/29 07:42:27;;;;;;;;;;;25.40;72.40;;;;;;5044669;28;20439;-88
2022/08/29 07:44:52;;;;;;;;;;;25.10;73.70;;;;;;5043913;28;19913;-86
2022/08/29 07:47:19;;;;;;;;;;;25.80;72.60;;;;;;5044849;28;19913;-86
2022/08/29 07:49:45;;;;;;;;;;;25.80;71.70;;;;;;5044812;28;20438;-86
2022/08/29 07:52:10;;;;;;;;;;;25.10;73.40;;;;;;5046096;28;19929;-86
2022/08/29 07:54:37;;;;;;;;;;;24.50;74.90;;;;;;5061954;28;20020;-89
2022/08/29 07:57:02;;;;;;;;;;;24.90;75.30;;;;;;5043598;28;20454;-86
2022/08/29 07:59:29;;;;;;;;;;;25.10;75.10;;;;;;5058237;28;19917;-85
2022/08/29 08:01:54;;;;;;;;;;;25.70;73.00;;;;;;5064160;28;19916;-83
2022/08/29 08:04:20;;;;;;;;;;;25.60;73.50;;;;;;5062740;28;19920;-83
2022/08/29 08:06:46;;;;;;;;;;;25.60;73.60;;;;;;5064210;28;19919;-83
2022/08/29 08:09:14;;;;;;;;;;;27.00;70.00;;;;;;5064321;28;20013;-84
2022/08/29 08:11:40;;;;;;;;;;;26.30;70.00;;;;;;5064325;28;19913;-84
2022/08/29 08:14:05;;;;;;;;;;;26.30;70.50;;;;;;5064419;28;20025;-83
2022/08/29 08:16:31;;;;;;;;;;;25.80;71.10;;;;;;5064065;28;20019;-83
2022/08/29 08:18:57;;;;;;;;;;;25.50;72.00;;;;;;5063812;28;20382;-82
2022/08/29 08:21:23;;;;;;;;;;;25.70;72.10;;;;;;5045127;28;19925;-84
2022/08/29 08:23:49;;;;;;;;;;;25.90;70.90;;;;;;5043567;28;20399;-84
2022/08/29 08:26:15;;;;;;;;;;;25.70;71.20;;;;;;5051830;28;19913;-84
2022/08/29 08:28:41;;;;;;;;;;;25.40;72.00;;;;;;5043544;28;19912;-84
2022/08/29 08:31:07;;;;;;;;;;;25.10;72.60;;;;;;5041829;28;20011;-85
2022/08/29 08:33:34;;;;;;;;;;;24.70;74.20;;;;;;5042063;28;19917;-86
2022/08/29 08:35:59;;;;;;;;;;;24.50;75.30;;;;;;5063007;28;19912;-87
2022/08/29 08:38:25;;;;;;;;;;;24.30;76.10;;;;;;5063082;28;19924;-85
2022/08/29 08:40:57;;;;;;;;;;;24.20;77.10;;;;;;5063061;28;20818;-86
2022/08/29 08:43:27;;;;;;;;;;;24.20;76.50;;;;;;5063046;28;19912;-85
2022/08/29 08:45:54;;;;;;;;;;;24.30;76.80;;;;;;5063510;28;20003;-85
2022/08/29 08:48:19;;;;;;;;;;;24.50;77.20;;;;;;5061042;28;19917;-86
2022/08/29 08:50:48;;;;;;;;;;;24.60;76.80;;;;;;5063459;28;19973;-87
2022/08/29 08:53:13;;;;;;;;;;;24.50;77.40;;;;;;5062958;28;20035;-86
2022/08/29 08:55:55;;;;;;;;;;;24.30;77.30;;;;;;5062849;28;20442;-87
2022/08/29 08:58:38;;;;;;;;;;;24.20;79.00;;;;;;5062646;28;19916;-86
2022/08/29 09:01:04;;;;;;;;;;;24.10;78.90;;;;;;5044694;28;20771;-85
2022/08/29 09:03:48;;;;;;;;;;;24.00;78.60;;;;;;5059630;28;19923;-85
2022/08/29 09:06:30;;;;;;;;;;;24.00;79.20;;;;;;5060702;28;20266;-85
2022/08/29 09:08:55;;;;;;;;;;;24.00;79.40;;;;;;5062036;28;19912;-85
2022/08/29 09:11:32;;;;;;;;;;;24.00;79.50;;;;;;5043460;28;19989;-85
2022/08/29 09:14:03;;;;;;;;;;;24.00;79.10;;;;;;5062543;28;19919;-88
2022/08/29 09:16:33;;;;;;;;;;;24.10;79.10;;;;;;5044247;28;19927;-86
2022/08/29 09:19:04;;;;;;;;;;;24.20;79.00;;;;;;5061138;28;19970;-84
2022/08/29 09:21:33;;;;;;;;;;;24.20;79.10;;;;;;5043648;28;19927;-85
2022/08/29 09:23:59;;;;;;;;;;;24.10;78.60;;;;;;5060880;28;19921;-86
2022/08/29 09:26:27;;;;;;;;;;;24.00;80.10;;;;;;5058055;28;19912;-84
2022/08/29 09:28:53;;;;;;;;;;;24.00;81.70;;;;;;5041265;28;20019;-85
2022/08/29 09:31:21;;;;;;;;;;;24.30;78.90;;;;;;5061084;28;20007;-86
2022/08/29 09:33:54;;;;;;;;;;;24.90;78.30;;;;;;5057847;28;19983;-85
2022/08/29 09:36:32;;;;;;;;;;;25.30;77.20;;;;;;5060821;28;20418;-85
2022/08/29 09:39:16;;;;;;;;;;;25.40;76.40;;;;;;5060054;28;19920;-85
2022/08/29 09:41:42;;;;;;;;;;;25.30;77.70;;;;;;5057626;28;20320;-87
2022/08/29 09:44:19;;;;;;;;;;;25.30;78.30;;;;;;5043427;28;19919;-86
2022/08/29 09:46:45;;;;;;;;;;;25.50;77.60;;;;;;5043251;28;19919;-88
2022/08/29 09:49:12;;;;;;;;;;;25.60;76.40;;;;;;5043521;28;19913;-88
2022/08/29 09:51:46;;;;;;;;;;;25.60;76.30;;;;;;5061794;28;19927;-87
2022/08/29 09:54:12;;;;;;;;;;;25.80;76.80;;;;;;5061685;28;19916;-87
2022/08/29 09:56:39;;;;;;;;;;;26.00;75.60;;;;;;5061663;28;19994;-86
2022/08/29 09:59:24;;;;;;;;;;;26.00;77.50;;;;;;5063260;28;20307;-87
2022/08/29 10:02:06;;;;;;;;;;;25.90;77.90;;;;;;5064133;28;19928;-85
2022/08/29 10:04:37;;;;;;;;;;;25.70;77.20;;;;;;5066834;28;19923;-85
2022/08/29 10:07:11;;;;;;;;;;;25.40;76.70;;;;;;5065519;28;19920;-84
2022/08/29 10:09:36;;;;;;;;;;;25.10;78.00;;;;;;5065143;28;19939;-84
2022/08/29 10:12:06;;;;;;;;;;;24.90;77.90;;;;;;5086095;28;20380;-85
2022/08/29 10:14:37;;;;;;;;;;;24.90;78.70;;;;;;5046014;28;19913;-86
2022/08/29 10:19:53;;;;;;;;;;;25.20;77.90;;;;;;5059241;28;19927;-87
2022/08/29 10:22:38;;;;;;;;;;;25.40;77.70;;;;;;5056094;28;19921;-86
2022/08/29 10:25:16;;;;;;;;;;;25.70;77.80;;;;;;5056952;28;20375;-85
2022/08/29 10:27:42;;;;;;;;;;;25.60;79.50;;;;;;5063809;28;19917;-86
2022/08/29 10:30:07;;;;;;;;;;;25.60;78.70;;;;;;5064155;28;20288;-85
2022/08/29 10:32:52;;;;;;;;;;;25.70;78.30;;;;;;5065231;28;19912;-85
2022/08/29 10:35:29;;;;;;;;;;;26.10;77.20;;;;;;5071611;28;19965;-85
2022/08/29 10:38:17;;;;;;;;;;;26.70;75.70;;;;;;5054263;28;19924;-85
2022/08/29 10:40:52;;;;;;;;;;;27.20;74.50;;;;;;5054211;28;19920;-85
2022/08/29 10:43:27;;;;;;;;;;;27.60;72.80;;;;;;5064381;28;19918;-85
2022/08/29 10:45:53;;;;;;;;;;;28.00;71.90;;;;;;5063292;28;19923;-85
2022/08/29 10:48:20;;;;;;;;;;;28.60;70.10;;;;;;5063007;28;19916;-86
2022/08/29 10:50:55;;;;;;;;;;;28.80;70.50;;;;;;5064472;28;19913;-86
2022/08/29 10:53:31;;;;;;;;;;;28.80;68.10;;;;;;5064284;28;19924;-86
2022/08/29 10:55:59;;;;;;;;;;;29.00;68.40;;;;;;5065031;28;20471;-86
2022/08/29 10:58:43;;;;;;;;;;;29.10;67.50;;;;;;5062639;28;20790;-84
2022/08/29 11:01:13;;;;;;;;;;;28.80;66.90;;;;;;5063376;28;19931;-85
2022/08/29 11:03:54;;;;;;;;;;;29.20;67.90;;;;;;5064285;28;20649;-84
2022/08/29 11:06:39;;;;;;;;;;;29.30;66.70;;;;;;5065496;28;19917;-83
2022/08/29 11:09:08;;;;;;;;;;;29.10;66.40;;;;;;5064805;28;19923;-82
2022/08/29 11:11:35;;;;;;;;;;;28.90;67.20;;;;;;5063705;28;19908;-82
2022/08/29 11:14:21;;;;;;;;;;;28.80;68.10;;;;;;5064467;28;19935;-82
2022/08/29 11:16:48;;;;;;;;;;;28.90;66.70;;;;;;5064207;28;19916;-84
2022/08/29 11:19:23;;;;;;;;;;;29.20;66.10;;;;;;5063082;28;19969;-84
2022/08/29 11:21:57;;;;;;;;;;;29.20;63.80;;;;;;5076043;28;19923;-84
2022/08/29 11:24:25;;;;;;;;;;;29.40;64.30;;;;;;5083298;28;19912;-83
2022/08/29 11:26:56;;;;;;;;;;;29.50;64.10;;;;;;5076347;28;19916;-83
2022/08/29 11:29:23;;;;;;;;;;;29.30;63.40;;;;;;5076899;28;20351;-84
2022/08/29 11:31:51;;;;;;;;;;;29.50;63.00;;;;;;5062173;28;19917;-84
2022/08/29 11:34:36;;;;;;;;;;;29.80;62.90;;;;;;5063129;28;20490;-84
2022/08/29 11:37:16;;;;;;;;;;;30.10;60.60;;;;;;5064326;28;19913;-84
2022/08/29 11:40:00;;;;;;;;;;;30.20;57.30;;;;;;5060924;28;19928;-84
2022/08/29 11:42:29;;;;;;;;;;;29.90;54.30;;;;;;5042841;28;20684;-84
2022/08/29 11:44:56;;;;;;;;;;;29.90;54.70;;;;;;5076354;28;19912;-84
2022/08/29 11:47:31;;;;;;;;;;;29.80;56.60;;;;;;5060849;28;19920;-85
2022/08/29 11:50:02;;;;;;;;;;;29.90;56.40;;;;;;5060405;28;19916;-85
2022/08/29 11:52:28;;;;;;;;;;;30.00;55.60;;;;;;5062582;28;19924;-85
2022/08/29 11:55:10;;;;;;;;;;;30.10;54.80;;;;;;5064009;28;19947;-84
2022/08/29 11:57:37;;;;;;;;;;;30.30;54.00;;;;;;5071235;28;19974;-84
2022/08/29 12:00:21;;;;;;;;;;;30.40;53.10;;;;;;5051724;28;19921;-84
2022/08/29 12:02:47;;;;;;;;;;;30.10;52.90;;;;;;5080429;28;20383;-84
2022/08/29 12:05:15;;;;;;;;;;;30.00;51.90;;;;;;5044346;28;20047;-83
2022/08/29 12:07:47;;;;;;;;;;;30.00;52.00;;;;;;5052348;28;19959;-83
2022/08/29 12:10:20;;;;;;;;;;;29.90;53.80;;;;;;5053291;28;19970;-83
2022/08/29 12:12:48;;;;;;;;;;;29.70;53.90;;;;;;5061262;28;19913;-84
2022/08/29 12:15:26;;;;;;;;;;;29.60;54.30;;;;;;5050320;28;19917;-84
2022/08/29 12:17:59;;;;;;;;;;;29.60;54.80;;;;;;5065210;28;19931;-83
2022/08/29 12:20:32;;;;;;;;;;;29.70;54.80;;;;;;5073495;28;19916;-83
2022/08/29 12:23:05;;;;;;;;;;;29.60;55.40;;;;;;5073873;28;19920;-84
2022/08/29 12:25:31;;;;;;;;;;;29.60;54.60;;;;;;5049568;28;20058;-86
2022/08/29 12:27:56;;;;;;;;;;;29.60;55.40;;;;;;5043548;28;19917;-84
2022/08/29 12:30:21;;;;;;;;;;;29.60;54.30;;;;;;5043480;28;20425;-84
2022/08/29 12:32:53;;;;;;;;;;;29.70;53.80;;;;;;5048549;28;19917;-84
2022/08/29 12:35:21;;;;;;;;;;;29.40;54.30;;;;;;5074930;28;19905;-84
2022/08/29 12:37:47;;;;;;;;;;;29.30;52.90;;;;;;5083086;28;19919;-83
2022/08/29 12:40:20;;;;;;;;;;;29.20;51.90;;;;;;5042896;28;19921;-83
2022/08/29 12:42:57;;;;;;;;;;;29.10;52.50;;;;;;5062321;28;20015;-84
2022/08/29 12:45:26;;;;;;;;;;;29.10;52.10;;;;;;5061974;28;19913;-83
2022/08/29 12:47:57;;;;;;;;;;;28.90;52.90;;;;;;5058317;28;19959;-84
2022/08/29 12:50:27;;;;;;;;;;;29.00;52.20;;;;;;5059721;28;19916;-84
2022/08/29 12:52:57;;;;;;;;;;;29.20;52.90;;;;;;5061282;28;20033;-83
2022/08/29 12:55:25;;;;;;;;;;;29.40;53.90;;;;;;5062589;28;20642;-83
2022/08/29 12:57:51;;;;;;;;;;;29.60;53.30;;;;;;5064056;28;19915;-83
2022/08/29 13:00:22;;;;;;;;;;;30.00;52.60;;;;;;5061004;28;19959;-83
2022/08/29 13:02:55;;;;;;;;;;;30.00;51.40;;;;;;5057057;28;19917;-83
2022/08/29 13:05:22;;;;;;;;;;;29.60;51.30;;;;;;5082238;28;19916;-84
2022/08/29 13:07:55;;;;;;;;;;;29.90;49.20;;;;;;5079708;28;20473;-84
2022/08/29 13:10:21;;;;;;;;;;;29.80;50.80;;;;;;5062385;28;19917;-84
2022/08/29 13:12:46;;;;;;;;;;;29.80;50.50;;;;;;5062125;28;19986;-83
2022/08/29 13:15:25;;;;;;;;;;;29.80;50.30;;;;;;5059842;28;20011;-83
2022/08/29 13:17:51;;;;;;;;;;;29.80;50.80;;;;;;5060289;28;19923;-82
2022/08/29 13:20:35;;;;;;;;;;;29.60;49.40;;;;;;5062146;28;20292;-82
2022/08/29 13:23:06;;;;;;;;;;;29.40;49.40;;;;;;5057996;28;20019;-82
2022/08/29 13:25:32;;;;;;;;;;;29.70;49.40;;;;;;5042674;28;19931;-84
2022/08/29 13:27:58;;;;;;;;;;;30.00;47.90;;;;;;5062339;28;20395;-84
2022/08/29 13:30:24;;;;;;;;;;;30.40;47.90;;;;;;5077537;28;19917;-84
2022/08/29 13:32:51;;;;;;;;;;;30.80;48.50;;;;;;5055546;28;19916;-84
2022/08/29 13:35:18;;;;;;;;;;;31.10;46.80;;;;;;5073216;28;19912;-86
2022/08/29 13:37:45;;;;;;;;;;;31.20;47.50;;;;;;5049191;28;19917;-85
2022/08/29 13:40:26;;;;;;;;;;;31.20;46.60;;;;;;5047838;28;19920;-84
2022/08/29 13:42:52;;;;;;;;;;;31.30;47.10;;;;;;5064481;28;20454;-85
2022/08/29 13:45:20;;;;;;;;;;;31.20;46.40;;;;;;5064086;28;19916;-85
2022/08/29 13:48:09;;;;;;;;;;;31.50;47.00;;;;;;5060748;28;19917;-83
2022/08/29 13:50:34;;;;;;;;;;;31.60;46.00;;;;;;5061639;28;19923;-84
2022/08/29 13:53:00;;;;;;;;;;;31.30;45.50;;;;;;5062864;28;19925;-83
2022/08/29 13:55:26;;;;;;;;;;;31.00;45.20;;;;;;5060064;28;20589;-85
2022/08/29 13:57:52;;;;;;;;;;;31.20;45.80;;;;;;5064376;28;19916;-84
2022/08/29 14:00:18;;;;;;;;;;;31.00;46.40;;;;;;5062984;28;19924;-85
2022/08/29 14:02:44;;;;;;;;;;;31.30;45.50;;;;;;5062426;28;19924;-85
2022/08/29 14:05:12;;;;;;;;;;;31.50;45.80;;;;;;5063699;28;20679;-85
2022/08/29 14:07:39;;;;;;;;;;;31.30;46.30;;;;;;5062707;28;19917;-85
2022/08/29 14:10:05;;;;;;;;;;;31.30;47.00;;;;;;5063908;28;19913;-85
2022/08/29 14:12:31;;;;;;;;;;;31.20;45.60;;;;;;5056202;28;19923;-84
2022/08/29 14:14:56;;;;;;;;;;;31.10;45.80;;;;;;5064010;28;19916;-84
2022/08/29 14:17:23;;;;;;;;;;;31.20;46.10;;;;;;5069773;28;20407;-83
2022/08/29 14:19:48;;;;;;;;;;;31.40;45.10;;;;;;5079231;28;20601;-84
2022/08/29 14:22:14;;;;;;;;;;;31.40;46.30;;;;;;5055175;28;19970;-84
2022/08/29 14:24:40;;;;;;;;;;;31.50;44.70;;;;;;5064782;28;19935;-84
2022/08/29 14:27:06;;;;;;;;;;;31.70;45.90;;;;;;5063067;28;20375;-84